createdAt,value
2023-02-13T00:00:39.601Z,37.63
2023-02-13T00:03:06.461Z,35.90
2023-02-13T00:05:33.350Z,38.35
2023-02-13T00:08:00.122Z,37.72
2023-02-13T00:10:27.030Z,37.30
2023-02-13T00:12:53.889Z,36.85
2023-02-13T00:15:20.865Z,40.03
2023-02-13T00:17:47.666Z,39.33
2023-02-13T00:20:14.790Z,34.03
2023-02-13T00:22:41.597Z,36.40
2023-02-13T00:25:09.365Z,35.67
2023-02-13T00:27:36.279Z,38.90
2023-02-13T00:30:04.691Z,35.95
2023-02-13T00:32:31.839Z,37.05
2023-02-13T00:34:58.753Z,37.05
2023-02-13T00:37:26.281Z,33.80
2023-02-13T00:39:53.450Z,36.70
2023-02-13T00:42:24.013Z,36.60
2023-02-13T00:44:51.044Z,33.90
2023-02-13T00:47:18.214Z,35.33
2023-02-13T00:49:45.410Z,34.75
2023-02-13T00:52:12.670Z,36.42
2023-02-13T00:54:39.456Z,34.08
2023-02-13T00:57:06.364Z,37.00
2023-02-13T00:59:33.242Z,37.75
2023-02-13T01:02:00.736Z,34.22
2023-02-13T01:04:27.583Z,33.00
2023-02-13T01:06:57.538Z,33.53
2023-02-13T01:09:25.412Z,34.90
2023-02-13T01:11:52.367Z,35.45
2023-02-13T01:14:19.201Z,34.92
2023-02-13T01:16:47.579Z,33.17
2023-02-13T01:19:14.433Z,32.53
2023-02-13T01:21:42.726Z,35.15
2023-02-13T01:24:09.701Z,33.10
2023-02-13T01:26:36.573Z,36.88
2023-02-13T01:29:03.440Z,32.85
2023-02-13T01:31:30.328Z,32.38
2023-02-13T01:33:59.555Z,32.38
2023-02-13T01:36:27.024Z,32.83
2023-02-13T01:38:58.374Z,35.03
2023-02-13T01:41:27.846Z,31.15
2023-02-13T01:44:01.113Z,30.35
2023-02-13T01:46:40.645Z,34.00
2023-02-13T01:49:25.878Z,34.00
2023-02-13T01:51:56.444Z,34.33
2023-02-13T01:54:32.940Z,31.77
2023-02-13T01:57:14.682Z,33.88
2023-02-13T01:59:53.202Z,29.50
2023-02-13T02:02:21.098Z,29.48
2023-02-13T02:04:48.853Z,30.23
2023-02-13T02:07:27.414Z,32.30
2023-02-13T02:10:06.777Z,33.08
2023-02-13T02:13:01.559Z,31.88
2023-02-13T02:15:29.119Z,29.33
2023-02-13T02:17:56.077Z,31.55
2023-02-13T02:21:00.394Z,32.40
2023-02-13T02:23:51.251Z,31.75
2023-02-13T02:26:32.989Z,30.60
2023-02-13T02:29:24.835Z,30.73
2023-02-13T02:32:31.226Z,30.50
2023-02-13T02:35:35.732Z,29.75
2023-02-13T02:38:24.677Z,29.95
2023-02-13T02:41:41.764Z,31.10
2023-02-13T02:44:38.964Z,30.80
2023-02-13T02:48:14.812Z,33.65
2023-02-13T02:50:42.876Z,30.10
2023-02-13T02:53:21.910Z,31.60
2023-02-13T02:55:55.525Z,29.95
2023-02-13T02:58:55.255Z,28.25
2023-02-13T03:01:48.575Z,30.17
2023-02-13T03:04:50.777Z,32.30
2023-02-13T03:07:20.011Z,28.38
2023-02-13T03:10:29.255Z,31.38
2023-02-13T03:13:20.772Z,31.55
2023-02-13T03:16:10.849Z,31.52
2023-02-13T03:19:08.774Z,30.27
2023-02-13T03:22:17.001Z,30.05
2023-02-13T03:25:18.691Z,29.05
2023-02-13T03:28:20.108Z,31.58
2023-02-13T03:31:06.438Z,30.85
2023-02-13T03:34:12.998Z,33.10
2023-02-13T03:37:21.363Z,31.40
2023-02-13T03:40:12.805Z,28.90
2023-02-13T03:42:48.653Z,27.58
2023-02-13T03:45:43.441Z,31.85
2023-02-13T03:48:32.936Z,32.33
2023-02-13T03:51:03.183Z,30.52
2023-02-13T03:53:34.737Z,30.85
2023-02-13T03:56:21.624Z,28.20
2023-02-13T03:59:17.014Z,31.40
2023-02-13T04:02:11.313Z,33.30
2023-02-13T04:04:55.810Z,28.05
2023-02-13T04:07:32.195Z,28.85
2023-02-13T04:10:14.228Z,33.60
2023-02-13T04:13:05.167Z,31.50
2023-02-13T04:15:48.887Z,32.63
2023-02-13T04:18:25.104Z,30.08
2023-02-13T04:20:52.342Z,32.50
2023-02-13T04:23:20.455Z,29.73
2023-02-13T04:25:51.967Z,29.30
2023-02-13T04:28:18.893Z,29.85
2023-02-13T04:30:45.839Z,31.30
2023-02-13T04:33:12.712Z,30.20
2023-02-13T04:35:39.506Z,33.15
2023-02-13T04:38:06.372Z,27.83
2023-02-13T04:40:33.359Z,30.10
2023-02-13T04:43:00.432Z,31.17
2023-02-13T04:45:27.304Z,31.08
2023-02-13T04:47:56.245Z,31.50
2023-02-13T04:50:24.406Z,29.60
2023-02-13T04:52:57.237Z,30.50
2023-02-13T04:55:26.111Z,32.10
2023-02-13T04:57:54.599Z,31.75
2023-02-13T05:00:23.805Z,32.08
2023-02-13T05:02:50.886Z,31.63
2023-02-13T05:05:17.869Z,29.95
2023-02-13T05:07:45.052Z,30.05
2023-02-13T05:10:12.298Z,31.35
2023-02-13T05:12:39.528Z,29.40
2023-02-13T05:15:07.178Z,30.85
2023-02-13T05:17:33.953Z,33.05
2023-02-13T05:20:01.112Z,30.05
2023-02-13T05:22:46.761Z,30.63
2023-02-13T05:25:13.604Z,32.55
2023-02-13T05:27:40.607Z,30.80
2023-02-13T05:30:08.374Z,33.22
2023-02-13T05:32:35.228Z,33.42
2023-02-13T05:35:04.305Z,33.97
2023-02-13T05:37:32.061Z,30.83
2023-02-13T05:39:58.809Z,29.77
2023-02-13T05:42:25.669Z,34.53
2023-02-13T05:44:52.448Z,29.52
2023-02-13T05:47:19.269Z,32.80
2023-02-13T05:49:46.090Z,33.00
2023-02-13T05:52:12.943Z,35.40
2023-02-13T05:54:40.102Z,34.60
2023-02-13T05:57:06.914Z,31.25
2023-02-13T05:59:33.785Z,32.88
2023-02-13T06:02:00.620Z,32.00
2023-02-13T06:04:27.431Z,31.02
2023-02-13T06:06:54.325Z,33.75
2023-02-13T06:09:21.724Z,34.50
2023-02-13T06:11:48.752Z,32.95
2023-02-13T06:14:15.887Z,30.20
2023-02-13T06:16:42.772Z,34.78
2023-02-13T06:19:09.813Z,32.13
2023-02-13T06:21:38.393Z,32.33
2023-02-13T06:24:07.831Z,31.52
2023-02-13T06:26:35.400Z,33.53
2023-02-13T06:29:02.223Z,33.40
2023-02-13T06:31:29.144Z,35.05
2023-02-13T06:33:56.288Z,33.13
2023-02-13T06:36:23.105Z,31.83
2023-02-13T06:38:50.024Z,32.58
2023-02-13T06:41:16.831Z,33.25
2023-02-13T06:43:43.625Z,31.70
2023-02-13T06:46:10.535Z,31.77
2023-02-13T06:48:37.595Z,31.73
2023-02-13T06:51:04.930Z,31.75
2023-02-13T06:53:31.841Z,33.70
2023-02-13T06:55:58.739Z,31.00
2023-02-13T06:58:26.489Z,31.58
2023-02-13T07:00:54.022Z,36.75
2023-02-13T07:03:21.508Z,33.28
2023-02-13T07:05:51.783Z,36.70
2023-02-13T07:08:19.461Z,36.30
2023-02-13T07:10:46.282Z,37.55
2023-02-13T07:13:13.210Z,37.70
2023-02-13T07:15:40.126Z,37.08
2023-02-13T07:18:07.338Z,34.60
2023-02-13T07:20:34.370Z,37.63
2023-02-13T07:23:04.191Z,34.30
2023-02-13T07:25:31.361Z,35.70
2023-02-13T07:28:05.982Z,36.50
2023-02-13T07:30:34.454Z,36.08
2023-02-13T07:33:05.334Z,37.15
2023-02-13T07:35:32.761Z,36.15
2023-02-13T07:38:00.665Z,33.97
2023-02-13T07:40:27.733Z,37.90
2023-02-13T07:42:54.904Z,39.38
2023-02-13T07:45:22.105Z,39.45
2023-02-13T07:47:48.939Z,35.45
2023-02-13T07:50:16.162Z,35.97
2023-02-13T07:52:42.936Z,36.55
2023-02-13T07:55:11.514Z,34.90
2023-02-13T07:57:38.409Z,35.97
2023-02-13T08:00:06.277Z,35.88
2023-02-13T08:02:38.704Z,38.10
2023-02-13T08:05:06.317Z,40.75
2023-02-13T08:07:33.592Z,39.33
2023-02-13T08:10:18.989Z,42.25
2023-02-13T08:12:46.445Z,41.63
2023-02-13T08:15:15.810Z,36.95
2023-02-13T08:17:42.592Z,38.42
2023-02-13T08:20:10.429Z,36.33
2023-02-13T08:22:38.758Z,39.15
2023-02-13T08:25:06.897Z,39.25
2023-02-13T08:27:33.983Z,39.70
2023-02-13T08:30:01.880Z,42.65
2023-02-13T08:32:28.848Z,40.83
2023-02-13T08:34:55.600Z,38.22
2023-02-13T08:37:23.145Z,38.95
2023-02-13T08:39:50.405Z,38.70
2023-02-13T08:42:17.314Z,41.45
2023-02-13T08:44:44.933Z,42.03
2023-02-13T08:47:11.964Z,39.20
2023-02-13T08:49:38.879Z,38.20
2023-02-13T08:52:05.918Z,36.22
2023-02-13T08:54:36.055Z,35.40
2023-02-13T08:57:03.521Z,35.30
2023-02-13T08:59:30.358Z,38.20
2023-02-13T09:01:58.181Z,35.47
2023-02-13T09:04:25.244Z,37.45
2023-02-13T09:06:52.041Z,35.10
2023-02-13T09:09:19.298Z,39.30
2023-02-13T09:11:46.149Z,37.38
2023-02-13T09:14:12.953Z,33.55
2023-02-13T09:16:39.865Z,34.08
2023-02-13T09:19:07.517Z,36.78
2023-02-13T09:21:34.413Z,32.30
2023-02-13T09:24:01.298Z,34.30
2023-02-13T09:26:28.182Z,34.35
2023-02-13T09:28:54.985Z,34.33
2023-02-13T09:31:24.051Z,31.58
2023-02-13T09:33:51.031Z,31.80
2023-02-13T09:36:22.157Z,32.17
2023-02-13T09:38:56.835Z,29.67
2023-02-13T09:41:41.693Z,32.00
2023-02-13T09:44:38.858Z,29.45
2023-02-13T09:47:34.512Z,28.90
2023-02-13T09:50:14.515Z,29.88
2023-02-13T09:52:45.602Z,30.25
2023-02-13T09:55:20.225Z,30.23
2023-02-13T09:58:20.548Z,29.83
2023-02-13T10:00:53.988Z,27.88
2023-02-13T10:03:29.699Z,29.52
2023-02-13T10:06:06.088Z,25.95
2023-02-13T10:09:22.602Z,27.73
2023-02-13T10:12:13.703Z,28.17
2023-02-13T10:15:35.344Z,27.50
2023-02-13T10:18:10.948Z,27.83
2023-02-13T10:20:51.315Z,28.73
2023-02-13T10:23:34.861Z,30.92
2023-02-13T10:26:12.381Z,28.80
2023-02-13T10:28:46.562Z,29.23
2023-02-13T10:31:22.299Z,29.90
2023-02-13T10:34:03.566Z,26.73
2023-02-13T10:36:37.519Z,27.42
2023-02-13T10:39:07.109Z,26.27
2023-02-13T10:42:16.308Z,26.73
2023-02-13T10:45:08.399Z,24.90
2023-02-13T10:47:38.494Z,25.60
2023-02-13T10:50:33.124Z,26.23
2023-02-13T10:53:33.852Z,28.02
2023-02-13T10:56:34.369Z,26.15
2023-02-13T10:59:38.017Z,25.15
2023-02-13T11:02:30.327Z,24.20
2023-02-13T11:05:22.048Z,21.20
2023-02-13T11:07:49.953Z,24.95
2023-02-13T11:10:20.104Z,25.13
2023-02-13T11:12:47.981Z,22.98
2023-02-13T11:15:32.829Z,25.23
2023-02-13T11:18:23.160Z,24.75
2023-02-13T11:21:14.250Z,23.38
2023-02-13T11:23:56.171Z,21.60
2023-02-13T11:26:36.994Z,20.70
2023-02-13T11:29:22.203Z,22.95
2023-02-13T11:32:17.523Z,22.13
2023-02-13T11:34:50.523Z,21.27
2023-02-13T11:37:31.517Z,21.95
2023-02-13T11:40:15.049Z,19.80
2023-02-13T11:42:43.734Z,22.02
2023-02-13T11:45:26.232Z,22.30
2023-02-13T11:47:56.072Z,20.30
2023-02-13T11:50:35.034Z,20.65
2023-02-13T11:53:16.898Z,21.08
2023-02-13T11:56:04.305Z,22.95
2023-02-13T11:58:31.828Z,20.65
2023-02-13T12:01:11.308Z,21.65
2023-02-13T12:03:38.892Z,20.85
2023-02-13T12:06:14.067Z,22.63
2023-02-13T12:08:48.126Z,22.10
2023-02-13T12:11:36.695Z,21.45
2023-02-13T12:14:03.594Z,21.00
2023-02-13T12:16:40.657Z,20.23
2023-02-13T12:19:21.045Z,21.50
2023-02-13T12:22:15.491Z,20.73
2023-02-13T12:25:14.558Z,24.50
2023-02-13T12:28:23.143Z,21.10
2023-02-13T12:31:08.582Z,19.35
2023-02-13T12:34:09.297Z,21.83
2023-02-13T12:36:47.405Z,19.58
2023-02-13T12:39:39.898Z,22.77
2023-02-13T12:42:34.277Z,22.65
2023-02-13T12:45:28.070Z,21.52
2023-02-13T12:48:16.425Z,21.60
2023-02-13T12:51:24.801Z,21.13
2023-02-13T12:54:18.060Z,22.38
2023-02-13T12:57:10.749Z,21.50
2023-02-13T13:00:18.941Z,19.65
2023-02-13T13:03:00.729Z,21.85
2023-02-13T13:06:12.515Z,19.98
2023-02-13T13:09:01.053Z,21.23
2023-02-13T13:12:05.152Z,18.20
2023-02-13T13:14:40.773Z,22.58
2023-02-13T13:17:22.568Z,21.30
2023-02-13T13:20:52.119Z,21.77
2023-02-13T13:23:30.831Z,22.10
2023-02-13T13:26:44.763Z,21.75
2023-02-13T13:29:24.810Z,21.05
2023-02-13T13:32:01.453Z,21.67
2023-02-13T13:34:31.369Z,22.55
2023-02-13T13:37:33.905Z,21.05
2023-02-13T13:40:28.665Z,20.88
2023-02-13T13:43:18.054Z,19.75
2023-02-13T13:46:08.149Z,20.10
2023-02-13T13:49:10.092Z,24.08
2023-02-13T13:51:37.529Z,20.33
2023-02-13T13:54:07.026Z,21.38
2023-02-13T13:57:02.095Z,20.05
2023-02-13T13:59:37.411Z,20.80
2023-02-13T14:02:44.807Z,22.17
2023-02-13T14:05:26.053Z,20.73
2023-02-13T14:07:59.159Z,20.27
2023-02-13T14:10:25.898Z,19.60
2023-02-13T14:12:58.885Z,19.02
2023-02-13T14:15:42.317Z,19.13
2023-02-13T14:18:14.724Z,20.77
2023-02-13T14:20:50.728Z,22.05
2023-02-13T14:23:42.584Z,17.95
2023-02-13T14:26:30.806Z,20.58
2023-02-13T14:29:11.843Z,20.40
2023-02-13T14:32:13.231Z,20.63
2023-02-13T14:34:40.937Z,19.20
2023-02-13T14:37:10.536Z,17.60
2023-02-13T14:39:41.901Z,18.70
2023-02-13T14:42:29.674Z,19.60
2023-02-13T14:45:00.394Z,19.55
2023-02-13T14:47:39.593Z,17.63
2023-02-13T14:50:14.756Z,18.88
2023-02-13T14:52:45.938Z,17.17
2023-02-13T14:55:55.500Z,18.13
2023-02-13T14:58:36.901Z,16.98
2023-02-13T15:01:24.826Z,18.67
2023-02-13T15:04:03.284Z,19.23
2023-02-13T15:06:38.524Z,21.08
2023-02-13T15:09:27.897Z,19.20
2023-02-13T15:11:54.781Z,21.45
2023-02-13T15:14:34.936Z,20.23
2023-02-13T15:17:19.417Z,18.25
2023-02-13T15:19:50.146Z,20.10
2023-02-13T15:22:37.153Z,19.52
2023-02-13T15:25:07.123Z,21.30
2023-02-13T15:27:43.634Z,20.77
2023-02-13T15:30:23.646Z,20.35
2023-02-13T15:33:00.055Z,18.83
2023-02-13T15:35:35.124Z,22.23
2023-02-13T15:38:28.377Z,21.17
2023-02-13T15:41:04.585Z,21.10
2023-02-13T15:43:37.241Z,20.50
2023-02-13T15:46:26.176Z,19.63
2023-02-13T15:48:55.485Z,23.52
2023-02-13T15:51:29.726Z,22.00
2023-02-13T15:54:23.422Z,19.88
2023-02-13T15:56:52.922Z,19.48
2023-02-13T15:59:21.391Z,21.15
2023-02-13T16:01:50.897Z,20.42
2023-02-13T16:04:21.122Z,21.17
2023-02-13T16:06:50.584Z,21.58
2023-02-13T16:09:35.296Z,20.20
2023-02-13T16:12:25.252Z,20.88
2023-02-13T16:14:59.798Z,20.80
2023-02-13T16:17:33.391Z,21.98
2023-02-13T16:20:16.902Z,19.60
2023-02-13T16:22:56.125Z,20.98
2023-02-13T16:25:39.215Z,19.85
2023-02-13T16:28:23.625Z,17.02
2023-02-13T16:31:02.998Z,20.85
2023-02-13T16:33:32.125Z,19.98
2023-02-13T16:36:17.858Z,21.73
2023-02-13T16:38:48.018Z,25.30
2023-02-13T16:41:17.586Z,19.50
2023-02-13T16:43:58.284Z,21.35
2023-02-13T16:46:40.990Z,21.98
2023-02-13T16:49:10.573Z,20.45
2023-02-13T16:51:52.402Z,24.00
2023-02-13T16:54:38.082Z,21.95
2023-02-13T16:57:13.732Z,21.33
2023-02-13T16:59:53.965Z,24.50
2023-02-13T17:02:27.767Z,23.65
2023-02-13T17:04:54.523Z,23.00
2023-02-13T17:07:31.119Z,22.27
2023-02-13T17:10:22.627Z,24.52
2023-02-13T17:12:51.334Z,26.55
2023-02-13T17:15:23.845Z,22.13
2023-02-13T17:17:51.766Z,26.00
2023-02-13T17:20:29.058Z,21.67
2023-02-13T17:22:59.350Z,26.33
2023-02-13T17:25:32.847Z,21.45
2023-02-13T17:28:19.080Z,20.95
2023-02-13T17:30:48.514Z,20.95
2023-02-13T17:33:22.486Z,22.85
2023-02-13T17:35:49.868Z,21.02
2023-02-13T17:38:17.386Z,22.92
2023-02-13T17:40:45.438Z,20.65
2023-02-13T17:43:15.242Z,20.75
2023-02-13T17:45:42.870Z,21.65
2023-02-13T17:48:09.777Z,21.05
2023-02-13T17:50:37.473Z,24.23
2023-02-13T17:53:08.493Z,22.13
2023-02-13T17:55:36.076Z,21.60
2023-02-13T17:58:03.002Z,22.90
2023-02-13T18:00:33.681Z,21.17
2023-02-13T18:03:01.179Z,20.88
2023-02-13T18:05:28.763Z,22.58
2023-02-13T18:07:55.881Z,23.02
2023-02-13T18:10:28.976Z,21.08
2023-02-13T18:13:03.884Z,23.73
2023-02-13T18:15:39.370Z,22.05
2023-02-13T18:18:06.357Z,21.83
2023-02-13T18:20:33.699Z,23.58
2023-02-13T18:23:00.707Z,22.85
2023-02-13T18:25:27.621Z,24.45
2023-02-13T18:27:55.280Z,22.65
2023-02-13T18:30:22.394Z,24.30
2023-02-13T18:32:58.792Z,24.80
2023-02-13T18:35:25.921Z,23.85
2023-02-13T18:37:53.033Z,23.55
2023-02-13T18:40:20.119Z,24.00
2023-02-13T18:42:47.005Z,23.33
2023-02-13T18:45:13.818Z,22.90
2023-02-13T18:47:40.720Z,21.55
2023-02-13T18:50:08.781Z,21.92
2023-02-13T18:52:36.235Z,23.48
2023-02-13T18:55:06.789Z,21.23
2023-02-13T18:57:33.964Z,22.45
2023-02-13T19:00:00.813Z,22.40
2023-02-13T19:02:27.756Z,23.58
2023-02-13T19:04:54.771Z,24.27
2023-02-13T19:07:21.690Z,24.42
2023-02-13T19:09:48.676Z,22.63
2023-02-13T19:12:15.439Z,24.42
2023-02-13T19:14:43.964Z,25.90
2023-02-13T19:17:10.810Z,21.25
2023-02-13T19:19:37.784Z,24.85
2023-02-13T19:22:04.690Z,22.75
2023-02-13T19:24:31.611Z,24.58
2023-02-13T19:26:58.524Z,22.95
2023-02-13T19:29:25.417Z,23.27
2023-02-13T19:31:52.248Z,24.55
2023-02-13T19:34:19.300Z,27.55
2023-02-13T19:36:46.192Z,25.02
2023-02-13T19:39:13.151Z,26.42
2023-02-13T19:41:44.017Z,25.60
2023-02-13T19:44:11.254Z,25.52
2023-02-13T19:46:38.740Z,26.85
2023-02-13T19:49:06.036Z,31.10
2023-02-13T19:51:34.867Z,29.92
2023-02-13T19:54:07.535Z,32.28
2023-02-13T19:56:40.044Z,31.05
2023-02-13T19:59:08.887Z,28.83
2023-02-13T20:01:35.798Z,31.67
2023-02-13T20:04:02.696Z,33.08
2023-02-13T20:06:36.547Z,36.10
2023-02-13T20:09:13.989Z,30.92
2023-02-13T20:11:42.825Z,32.33
2023-02-13T20:14:14.773Z,33.78
2023-02-13T20:16:42.947Z,37.70
2023-02-13T20:19:11.626Z,35.63
2023-02-13T20:21:39.173Z,35.80
2023-02-13T20:24:06.302Z,39.83
2023-02-13T20:26:34.578Z,34.20
2023-02-13T20:29:02.105Z,37.60
2023-02-13T20:31:30.676Z,36.10
2023-02-13T20:33:58.759Z,35.15
2023-02-13T20:36:29.848Z,35.00
2023-02-13T20:39:03.408Z,32.72
2023-02-13T20:41:33.561Z,34.10
2023-02-13T20:44:05.105Z,30.73
2023-02-13T20:46:35.102Z,33.50
2023-02-13T20:49:02.162Z,32.30
2023-02-13T20:51:29.552Z,35.42
2023-02-13T20:53:57.245Z,31.45
2023-02-13T20:56:26.510Z,32.85
2023-02-13T20:58:59.593Z,35.17
2023-02-13T21:01:32.151Z,37.63
2023-02-13T21:03:59.631Z,37.10
2023-02-13T21:06:32.250Z,34.50
2023-02-13T21:08:59.506Z,32.85
2023-02-13T21:11:28.299Z,38.70
2023-02-13T21:13:57.352Z,40.75
2023-02-13T21:16:28.764Z,60.17
2023-02-13T21:19:00.313Z,65.30
2023-02-13T21:21:31.510Z,63.97
2023-02-13T21:24:08.062Z,57.78
2023-02-13T21:26:35.939Z,54.05
2023-02-13T21:29:03.461Z,49.92
2023-02-13T21:31:36.395Z,47.97
2023-02-13T21:34:10.706Z,40.20
2023-02-13T21:36:38.978Z,36.85
2023-02-13T21:39:09.129Z,34.70
2023-02-13T21:41:38.884Z,32.22
2023-02-13T21:44:05.739Z,36.40
2023-02-13T21:46:33.920Z,36.67
2023-02-13T21:49:06.034Z,41.83
2023-02-13T21:51:35.628Z,35.58
2023-02-13T21:54:04.641Z,39.70
2023-02-13T21:56:37.933Z,36.35
2023-02-13T21:59:06.151Z,36.22
2023-02-13T22:01:54.507Z,42.00
2023-02-13T22:04:21.573Z,43.30
2023-02-13T22:06:51.401Z,41.72
2023-02-13T22:09:21.111Z,32.00
2023-02-13T22:11:49.502Z,35.58
2023-02-13T22:14:18.085Z,35.67
2023-02-13T22:16:45.978Z,34.65
2023-02-13T22:19:15.778Z,34.97
2023-02-13T22:21:43.181Z,44.45
2023-02-13T22:24:10.730Z,37.88
2023-02-13T22:26:40.741Z,37.22
2023-02-13T22:29:11.414Z,33.42
2023-02-13T22:31:38.724Z,38.30
2023-02-13T22:34:07.036Z,34.13
2023-02-13T22:36:40.451Z,35.47
2023-02-13T22:39:09.914Z,40.92
2023-02-13T22:41:37.430Z,34.75
2023-02-13T22:44:04.729Z,37.63
2023-02-13T22:46:33.764Z,34.97
2023-02-13T22:49:01.378Z,33.70
2023-02-13T22:51:36.003Z,34.88
2023-02-13T22:54:04.785Z,28.30
2023-02-13T22:56:32.393Z,33.60
2023-02-13T22:59:00.286Z,32.15
2023-02-13T23:01:29.467Z,32.47
2023-02-13T23:03:56.969Z,32.03
2023-02-13T23:06:25.246Z,31.05
2023-02-13T23:08:53.437Z,32.13
2023-02-13T23:11:43.135Z,27.80
2023-02-13T23:14:11.256Z,29.10
2023-02-13T23:16:58.665Z,28.98
2023-02-13T23:19:27.306Z,28.90
2023-02-13T23:21:54.404Z,27.95
2023-02-13T23:24:21.737Z,32.35
2023-02-13T23:26:48.643Z,28.58
2023-02-13T23:29:16.846Z,27.98
2023-02-13T23:31:43.782Z,27.00
2023-02-13T23:34:10.785Z,26.17
2023-02-13T23:36:37.960Z,29.48
2023-02-13T23:39:04.773Z,30.52
2023-02-13T23:41:31.610Z,32.13
2023-02-13T23:43:58.415Z,32.00
2023-02-13T23:46:25.337Z,33.05
2023-02-13T23:48:52.210Z,31.63
2023-02-13T23:51:21.116Z,30.17
2023-02-13T23:53:47.905Z,33.63
2023-02-13T23:56:14.921Z,31.42
2023-02-13T23:58:41.684Z,33.78
